Time;durP1;ratioP1;P1;durP2;ratioP2;P2;SDS_P1;SDS_P2;PMS_P1;PMS_P2;Temp;Humidity;BMP_temperature;BMP_pressure;BME280_temperature;BME280_humidity;BME280_pressure;Samples;Min_cycle;Max_cycle;Signal;HPM_P1;HPM_P2
2024/02/19 00:00:09;;;;;;;9.13;9.00;;;;;;;;;;5064913;27;20817;-70
2024/02/19 00:02:36;;;;;;;9.20;9.10;;;;;;;;;;5032967;27;20470;-72
2024/02/19 00:05:04;;;;;;;9.30;9.10;;;;;;;;;;5036317;27;20458;-70
2024/02/19 00:07:31;;;;;;;9.50;9.30;;;;;;;;;;5016147;27;20466;-70
2024/02/19 00:09:58;;;;;;;9.10;9.00;;;;;;;;;;5040243;27;20468;-70
2024/02/19 00:12:27;;;;;;;9.60;9.40;;;;;;;;;;5022928;28;20459;-70
2024/02/19 00:14:55;;;;;;;10.10;9.90;;;;;;;;;;5010822;28;20478;-70
2024/02/19 00:17:22;;;;;;;8.70;8.60;;;;;;;;;;5013133;28;20487;-70
2024/02/19 00:19:49;;;;;;;9.00;8.90;;;;;;;;;;5017521;28;20842;-70
2024/02/19 00:22:16;;;;;;;9.00;8.90;;;;;;;;;;5022964;28;20456;-71
2024/02/19 00:24:44;;;;;;;8.57;8.47;;;;;;;;;;5012661;28;20527;-70
2024/02/19 00:27:11;;;;;;;8.73;8.63;;;;;;;;;;5023457;28;20453;-69
2024/02/19 00:29:39;;;;;;;9.07;8.97;;;;;;;;;;5021587;28;20503;-72
2024/02/19 00:32:07;;;;;;;8.80;8.70;;;;;;;;;;5020151;28;20461;-72
2024/02/19 00:34:34;;;;;;;8.17;8.07;;;;;;;;;;5008351;28;20472;-72
2024/02/19 00:37:01;;;;;;;8.50;8.40;;;;;;;;;;5027510;27;20939;-70
2024/02/19 00:39:28;;;;;;;8.40;8.30;;;;;;;;;;5029280;27;20951;-71
2024/02/19 00:41:55;;;;;;;8.27;8.17;;;;;;;;;;5026744;27;20508;-71
2024/02/19 00:44:23;;;;;;;8.10;8.00;;;;;;;;;;5026957;27;21048;-70
2024/02/19 00:46:51;;;;;;;7.77;7.67;;;;;;;;;;5018433;27;21014;-70
2024/02/19 00:49:19;;;;;;;7.77;7.67;;;;;;;;;;5020309;27;20529;-69
2024/02/19 00:51:46;;;;;;;7.67;7.57;;;;;;;;;;5026825;27;20496;-71
2024/02/19 00:54:13;;;;;;;7.80;7.70;;;;;;;;;;5023353;27;20472;-71
2024/02/19 00:56:40;;;;;;;7.80;7.70;;;;;;;;;;5026218;27;20461;-71
2024/02/19 00:59:08;;;;;;;7.40;7.30;;;;;;;;;;5001933;28;20951;-70
2024/02/19 01:01:35;;;;;;;7.10;7.00;;;;;;;;;;4984717;27;20560;-70
2024/02/19 01:04:03;;;;;;;6.50;6.40;;;;;;;;;;4981186;28;20882;-70
2024/02/19 01:06:30;;;;;;;6.37;6.27;;;;;;;;;;4982803;28;20478;-70
2024/02/19 01:08:58;;;;;;;6.37;6.27;;;;;;;;;;4983592;27;21040;-71
2024/02/19 01:11:25;;;;;;;6.17;6.07;;;;;;;;;;4984248;27;21093;-71
2024/02/19 01:13:52;;;;;;;6.30;6.20;;;;;;;;;;4982137;28;20474;-71
2024/02/19 01:16:19;;;;;;;5.93;5.83;;;;;;;;;;4984966;27;20473;-72
2024/02/19 01:18:46;;;;;;;5.50;5.40;;;;;;;;;;4980582;27;20479;-71
2024/02/19 01:21:15;;;;;;;4.73;4.73;;;;;;;;;;4980484;27;20487;-71
2024/02/19 01:23:42;;;;;;;4.53;4.53;;;;;;;;;;4982172;27;20802;-71
2024/02/19 01:26:09;;;;;;;4.50;4.50;;;;;;;;;;4982286;27;20948;-72
2024/02/19 01:28:37;;;;;;;4.27;4.27;;;;;;;;;;4982203;27;20493;-71
2024/02/19 01:31:04;;;;;;;4.50;4.50;;;;;;;;;;4982733;28;21164;-72
2024/02/19 01:33:31;;;;;;;4.50;4.50;;;;;;;;;;4985420;27;20465;-72
2024/02/19 01:35:59;;;;;;;5.00;5.00;;;;;;;;;;4982580;27;20864;-71
2024/02/19 01:38:27;;;;;;;5.00;4.97;;;;;;;;;;4984451;27;21144;-71
2024/02/19 01:40:55;;;;;;;4.80;4.80;;;;;;;;;;4982428;27;20495;-71
2024/02/19 01:43:22;;;;;;;5.00;5.00;;;;;;;;;;4981792;27;20502;-70
2024/02/19 01:45:50;;;;;;;5.10;5.10;;;;;;;;;;4981471;27;20501;-69
2024/02/19 01:48:18;;;;;;;4.57;4.57;;;;;;;;;;4983324;27;20964;-72
2024/02/19 01:50:45;;;;;;;4.30;4.30;;;;;;;;;;4984024;27;20466;-71
2024/02/19 01:53:13;;;;;;;4.33;4.33;;;;;;;;;;4984127;27;20898;-71
2024/02/19 01:55:42;;;;;;;4.07;4.07;;;;;;;;;;4982560;27;20462;-71
2024/02/19 01:58:10;;;;;;;4.20;4.20;;;;;;;;;;4988591;28;20473;-71
2024/02/19 02:00:38;;;;;;;4.47;4.47;;;;;;;;;;5028325;27;20945;-71
2024/02/19 02:03:06;;;;;;;4.20;4.20;;;;;;;;;;5018976;27;20472;-71
2024/02/19 02:05:33;;;;;;;3.80;3.80;;;;;;;;;;5021391;27;21032;-71
2024/02/19 02:08:05;;;;;;;3.40;3.40;;;;;;;;;;5016998;27;20484;-72
2024/02/19 02:13:16;;;;;;;3.50;3.50;;;;;;;;;;5073472;27;20477;-71
2024/02/19 02:15:43;;;;;;;3.37;3.37;;;;;;;;;;5018831;27;20477;-72
2024/02/19 02:18:11;;;;;;;3.80;3.80;;;;;;;;;;5020977;27;20487;-72
2024/02/19 02:20:39;;;;;;;3.53;3.53;;;;;;;;;;5024657;27;20816;-71
2024/02/19 02:23:07;;;;;;;3.50;3.50;;;;;;;;;;5021112;27;20466;-70
2024/02/19 02:25:34;;;;;;;3.63;3.63;;;;;;;;;;5022196;27;20490;-72
2024/02/19 02:28:02;;;;;;;4.23;4.23;;;;;;;;;;5027890;27;20462;-71
2024/02/19 02:30:30;;;;;;;4.33;4.33;;;;;;;;;;5027385;27;20496;-71
2024/02/19 02:32:57;;;;;;;3.90;3.90;;;;;;;;;;5022117;27;20889;-72
2024/02/19 02:35:25;;;;;;;3.80;3.80;;;;;;;;;;5021626;27;20461;-70
2024/02/19 02:37:52;;;;;;;3.40;3.40;;;;;;;;;;5023513;27;20473;-71
2024/02/19 02:40:19;;;;;;;4.47;4.47;;;;;;;;;;5028074;27;20465;-71
2024/02/19 02:42:46;;;;;;;4.23;4.23;;;;;;;;;;5013066;27;20468;-72
2024/02/19 02:45:15;;;;;;;4.40;4.40;;;;;;;;;;5023614;27;20477;-71
2024/02/19 02:47:42;;;;;;;4.90;4.90;;;;;;;;;;5027980;27;20582;-71
2024/02/19 02:50:10;;;;;;;4.60;4.60;;;;;;;;;;5025868;27;20487;-72
2024/02/19 02:52:37;;;;;;;4.47;4.47;;;;;;;;;;5021785;27;20841;-71
2024/02/19 02:55:04;;;;;;;4.40;4.40;;;;;;;;;;5013472;27;20478;-71
2024/02/19 02:57:31;;;;;;;4.50;4.50;;;;;;;;;;5025423;27;20464;-70
2024/02/19 02:59:58;;;;;;;3.93;3.93;;;;;;;;;;5021064;28;20570;-72
2024/02/19 03:02:27;;;;;;;4.27;4.27;;;;;;;;;;5017511;28;20468;-70
2024/02/19 03:04:54;;;;;;;4.23;4.23;;;;;;;;;;5033277;27;20469;-70
2024/02/19 03:07:21;;;;;;;3.90;3.90;;;;;;;;;;5017503;27;20923;-70
2024/02/19 03:09:49;;;;;;;4.50;4.50;;;;;;;;;;5018219;27;20500;-71
2024/02/19 03:12:16;;;;;;;3.90;3.90;;;;;;;;;;5027637;28;20458;-71
2024/02/19 03:14:44;;;;;;;3.83;3.83;;;;;;;;;;5017537;27;21243;-71
2024/02/19 03:17:11;;;;;;;4.40;4.40;;;;;;;;;;5027917;28;20916;-71
2024/02/19 03:19:41;;;;;;;4.20;4.20;;;;;;;;;;5019549;27;20466;-71
2024/02/19 03:22:08;;;;;;;4.40;4.40;;;;;;;;;;5023509;27;20782;-70
2024/02/19 03:24:35;;;;;;;4.60;4.60;;;;;;;;;;5015841;28;20476;-71
2024/02/19 03:27:04;;;;;;;4.60;4.60;;;;;;;;;;5019333;27;20945;-70
2024/02/19 03:29:31;;;;;;;4.37;4.37;;;;;;;;;;5024216;27;20515;-72
2024/02/19 03:31:58;;;;;;;4.60;4.60;;;;;;;;;;5023159;27;20903;-71
2024/02/19 03:34:26;;;;;;;4.33;4.33;;;;;;;;;;5027332;28;20950;-72
2024/02/19 03:36:54;;;;;;;4.30;4.30;;;;;;;;;;5018912;27;20914;-71
2024/02/19 03:39:21;;;;;;;4.27;4.27;;;;;;;;;;5014442;27;20985;-71
2024/02/19 03:41:49;;;;;;;4.57;4.57;;;;;;;;;;5019534;27;20916;-70
2024/02/19 03:44:16;;;;;;;4.73;4.73;;;;;;;;;;5017637;27;21176;-70
2024/02/19 03:46:43;;;;;;;4.20;4.20;;;;;;;;;;5019267;28;20862;-71
2024/02/19 03:49:11;;;;;;;4.17;4.17;;;;;;;;;;5026971;27;20482;-70
2024/02/19 03:51:38;;;;;;;4.73;4.73;;;;;;;;;;5026616;27;20530;-71
2024/02/19 03:54:07;;;;;;;4.80;4.80;;;;;;;;;;5026128;27;20469;-70
2024/02/19 03:56:34;;;;;;;4.47;4.47;;;;;;;;;;5018783;28;20496;-72
2024/02/19 03:59:03;;;;;;;5.30;5.20;;;;;;;;;;5018637;27;20560;-71
2024/02/19 04:01:30;;;;;;;5.33;5.23;;;;;;;;;;5025179;28;20462;-71
2024/02/19 04:03:57;;;;;;;5.53;5.43;;;;;;;;;;5027516;27;20479;-71
2024/02/19 04:06:24;;;;;;;4.73;4.73;;;;;;;;;;5026416;28;21063;-72
2024/02/19 04:08:51;;;;;;;5.23;5.13;;;;;;;;;;5027007;27;20983;-71
2024/02/19 04:11:20;;;;;;;5.10;5.00;;;;;;;;;;5025708;28;20596;-70
2024/02/19 04:13:47;;;;;;;5.50;5.40;;;;;;;;;;5012561;28;20470;-72
2024/02/19 04:16:14;;;;;;;5.80;5.70;;;;;;;;;;5021565;28;20478;-71
2024/02/19 04:18:41;;;;;;;5.80;5.70;;;;;;;;;;5026873;27;20469;-72
2024/02/19 04:21:08;;;;;;;5.60;5.50;;;;;;;;;;5026817;27;20460;-71
2024/02/19 04:23:37;;;;;;;5.70;5.60;;;;;;;;;;5019366;28;20469;-71
2024/02/19 04:26:04;;;;;;;5.60;5.50;;;;;;;;;;5019439;27;20484;-70
2024/02/19 04:28:32;;;;;;;5.37;5.27;;;;;;;;;;5027670;28;20449;-70
2024/02/19 04:31:00;;;;;;;5.50;5.40;;;;;;;;;;5015560;28;20498;-72
2024/02/19 04:33:27;;;;;;;5.60;5.50;;;;;;;;;;5021421;28;20464;-70
2024/02/19 04:35:54;;;;;;;6.07;5.97;;;;;;;;;;5026159;28;20469;-71
2024/02/19 04:38:21;;;;;;;6.27;6.17;;;;;;;;;;5014492;28;20480;-71
2024/02/19 04:40:49;;;;;;;6.70;6.60;;;;;;;;;;5020189;28;20449;-71
2024/02/19 04:43:16;;;;;;;6.10;6.00;;;;;;;;;;5017608;28;21009;-71
2024/02/19 04:45:45;;;;;;;6.33;6.23;;;;;;;;;;5023724;28;20484;-71
2024/02/19 04:48:12;;;;;;;6.70;6.60;;;;;;;;;;5025550;28;20467;-71
2024/02/19 04:50:39;;;;;;;6.60;6.50;;;;;;;;;;5022552;28;20507;-72
2024/02/19 04:53:07;;;;;;;6.40;6.30;;;;;;;;;;5019734;28;21002;-72
2024/02/19 04:55:34;;;;;;;6.43;6.33;;;;;;;;;;5021041;28;20459;-72
2024/02/19 04:58:02;;;;;;;6.37;6.27;;;;;;;;;;5051752;28;20984;-73
2024/02/19 05:00:30;;;;;;;6.70;6.60;;;;;;;;;;5015533;28;20544;-71
2024/02/19 05:02:59;;;;;;;6.80;6.70;;;;;;;;;;5022883;28;20544;-71
2024/02/19 05:05:26;;;;;;;6.60;6.50;;;;;;;;;;5016139;28;20465;-72
2024/02/19 05:07:53;;;;;;;6.73;6.63;;;;;;;;;;5015733;28;21025;-72
2024/02/19 05:10:20;;;;;;;6.40;6.30;;;;;;;;;;5030058;28;20501;-70
2024/02/19 05:12:47;;;;;;;6.70;6.60;;;;;;;;;;5013527;28;20470;-71
2024/02/19 05:15:14;;;;;;;6.67;6.57;;;;;;;;;;5016249;28;20911;-72
2024/02/19 05:17:42;;;;;;;6.60;6.50;;;;;;;;;;5015399;28;20466;-71
2024/02/19 05:20:11;;;;;;;7.07;6.97;;;;;;;;;;5017278;28;21046;-72
2024/02/19 05:22:38;;;;;;;7.33;7.23;;;;;;;;;;5014500;28;20963;-73
2024/02/19 05:25:06;;;;;;;6.83;6.73;;;;;;;;;;5026847;27;20458;-71
2024/02/19 05:27:33;;;;;;;6.77;6.67;;;;;;;;;;5022972;27;20495;-72
2024/02/19 05:30:01;;;;;;;7.10;7.00;;;;;;;;;;5042869;27;20988;-73
2024/02/19 05:32:28;;;;;;;7.20;7.10;;;;;;;;;;5026287;27;21251;-72
2024/02/19 05:34:55;;;;;;;7.60;7.50;;;;;;;;;;5021362;27;20481;-72
2024/02/19 05:37:23;;;;;;;6.53;6.43;;;;;;;;;;5026789;27;20460;-72
2024/02/19 05:39:50;;;;;;;7.00;6.90;;;;;;;;;;5027981;27;20464;-72
2024/02/19 05:42:18;;;;;;;6.50;6.40;;;;;;;;;;5014267;27;20470;-72
2024/02/19 05:44:45;;;;;;;6.17;6.07;;;;;;;;;;5024366;27;20477;-71
2024/02/19 05:47:13;;;;;;;6.33;6.23;;;;;;;;;;5017358;27;20454;-71
2024/02/19 05:49:41;;;;;;;6.40;6.30;;;;;;;;;;5018861;27;20477;-72
2024/02/19 05:52:08;;;;;;;6.37;6.27;;;;;;;;;;5020745;27;20470;-72
2024/02/19 05:54:37;;;;;;;6.27;6.17;;;;;;;;;;5018028;27;20984;-72
2024/02/19 05:57:06;;;;;;;6.03;5.93;;;;;;;;;;5013353;27;20474;-72
2024/02/19 05:59:33;;;;;;;6.30;6.20;;;;;;;;;;5031032;27;20493;-72
2024/02/19 06:02:01;;;;;;;6.20;6.10;;;;;;;;;;5024392;27;20982;-71
2024/02/19 06:04:28;;;;;;;6.03;5.93;;;;;;;;;;5019722;28;20476;-72
2024/02/19 06:06:55;;;;;;;6.33;6.23;;;;;;;;;;5012023;27;20894;-73
2024/02/19 06:09:23;;;;;;;5.90;5.80;;;;;;;;;;5024883;27;20467;-72
2024/02/19 06:11:51;;;;;;;6.50;6.40;;;;;;;;;;5015917;27;20465;-72
2024/02/19 06:14:18;;;;;;;6.23;6.13;;;;;;;;;;5022956;27;20459;-71
2024/02/19 06:16:46;;;;;;;6.43;6.33;;;;;;;;;;5024679;28;20466;-71
2024/02/19 06:19:15;;;;;;;5.97;5.87;;;;;;;;;;5012170;28;20502;-71
2024/02/19 06:21:42;;;;;;;6.33;6.23;;;;;;;;;;5026163;27;20462;-72
2024/02/19 06:24:10;;;;;;;6.60;6.50;;;;;;;;;;5026344;27;20460;-71
2024/02/19 06:26:37;;;;;;;7.10;7.00;;;;;;;;;;5021025;27;20574;-73
2024/02/19 06:29:06;;;;;;;6.73;6.63;;;;;;;;;;5015410;28;20886;-71
2024/02/19 06:31:33;;;;;;;6.37;6.27;;;;;;;;;;5021591;27;20490;-73
2024/02/19 06:34:01;;;;;;;6.60;6.50;;;;;;;;;;5025811;27;20463;-71
2024/02/19 06:36:28;;;;;;;6.50;6.40;;;;;;;;;;5024256;27;20466;-73
2024/02/19 06:38:55;;;;;;;6.50;6.40;;;;;;;;;;5016156;27;20466;-72
2024/02/19 06:41:22;;;;;;;6.50;6.40;;;;;;;;;;5023288;27;20469;-73
2024/02/19 06:43:49;;;;;;;6.40;6.30;;;;;;;;;;5012002;27;20465;-73
2024/02/19 06:46:17;;;;;;;6.13;6.03;;;;;;;;;;5023651;27;20496;-72
2024/02/19 06:48:45;;;;;;;6.30;6.20;;;;;;;;;;5024979;27;20465;-72
2024/02/19 06:51:12;;;;;;;6.00;5.90;;;;;;;;;;5021840;27;20565;-72
2024/02/19 06:53:39;;;;;;;6.10;6.00;;;;;;;;;;5026429;27;20470;-72
2024/02/19 06:56:08;;;;;;;6.10;6.00;;;;;;;;;;5016576;27;20466;-72
2024/02/19 06:58:35;;;;;;;6.30;6.20;;;;;;;;;;5014525;28;20473;-72
2024/02/19 07:01:04;;;;;;;6.60;6.50;;;;;;;;;;5022615;27;20461;-72
2024/02/19 07:03:33;;;;;;;7.37;7.27;;;;;;;;;;5015390;27;20469;-72
2024/02/19 07:06:01;;;;;;;7.50;7.40;;;;;;;;;;5021589;28;20809;-73
2024/02/19 07:08:28;;;;;;;7.50;7.40;;;;;;;;;;5010965;27;21082;-73
2024/02/19 07:10:55;;;;;;;7.40;7.30;;;;;;;;;;5024903;27;21352;-72
2024/02/19 07:13:22;;;;;;;7.37;7.27;;;;;;;;;;5020417;28;20888;-72
2024/02/19 07:15:49;;;;;;;7.30;7.20;;;;;;;;;;5021813;27;20470;-72
2024/02/19 07:18:16;;;;;;;7.73;7.63;;;;;;;;;;5011710;27;20467;-73
2024/02/19 07:20:45;;;;;;;8.10;8.00;;;;;;;;;;5017724;27;20474;-73
2024/02/19 07:23:12;;;;;;;7.53;7.43;;;;;;;;;;5021022;28;20457;-74
2024/02/19 07:25:40;;;;;;;7.47;7.37;;;;;;;;;;5013490;28;20474;-72
2024/02/19 07:28:07;;;;;;;7.80;7.70;;;;;;;;;;5020954;27;20471;-72
2024/02/19 07:30:35;;;;;;;7.60;7.50;;;;;;;;;;5008427;27;20504;-72
2024/02/19 07:33:02;;;;;;;7.53;7.43;;;;;;;;;;5008170;28;20469;-72
2024/02/19 07:35:29;;;;;;;7.30;7.20;;;;;;;;;;5013643;28;20471;-72
2024/02/19 07:37:58;;;;;;;7.20;7.10;;;;;;;;;;5016527;28;20562;-72
2024/02/19 07:40:25;;;;;;;7.50;7.40;;;;;;;;;;5023622;27;20464;-73
2024/02/19 07:42:53;;;;;;;7.43;7.33;;;;;;;;;;5016314;27;20546;-71
2024/02/19 07:45:20;;;;;;;7.37;7.27;;;;;;;;;;5018522;27;20486;-73
2024/02/19 07:47:47;;;;;;;6.83;6.73;;;;;;;;;;5019224;27;20973;-72
2024/02/19 07:50:15;;;;;;;6.67;6.57;;;;;;;;;;5010315;27;20485;-71
2024/02/19 07:52:43;;;;;;;6.50;6.40;;;;;;;;;;5018976;27;20473;-73
2024/02/19 07:55:12;;;;;;;7.40;7.30;;;;;;;;;;5013455;27;20471;-72
2024/02/19 07:57:39;;;;;;;7.00;6.90;;;;;;;;;;5023069;28;20473;-72
2024/02/19 08:00:07;;;;;;;7.70;7.60;;;;;;;;;;5023346;27;20457;-72
2024/02/19 08:02:34;;;;;;;6.70;6.60;;;;;;;;;;5020160;28;20472;-72
2024/02/19 08:05:01;;;;;;;7.70;7.60;;;;;;;;;;5015705;28;20982;-71
2024/02/19 08:07:28;;;;;;;7.33;7.23;;;;;;;;;;5019412;27;20479;-73
2024/02/19 08:09:55;;;;;;;7.30;7.20;;;;;;;;;;5024554;28;20464;-72
2024/02/19 08:12:25;;;;;;;7.90;7.80;;;;;;;;;;5024940;28;20489;-72
2024/02/19 08:14:52;;;;;;;8.60;8.50;;;;;;;;;;5021262;27;20478;-72
2024/02/19 08:17:20;;;;;;;8.50;8.40;;;;;;;;;;5020095;28;20450;-73
2024/02/19 08:19:47;;;;;;;8.10;8.00;;;;;;;;;;5020831;27;20458;-73
2024/02/19 08:22:14;;;;;;;8.20;8.10;;;;;;;;;;5016141;28;20465;-73
2024/02/19 08:24:41;;;;;;;8.73;8.60;;;;;;;;;;5020759;28;20458;-72
2024/02/19 08:27:08;;;;;;;8.20;8.10;;;;;;;;;;5023171;28;20473;-73
2024/02/19 08:29:37;;;;;;;7.90;7.80;;;;;;;;;;5015767;28;20837;-71
2024/02/19 08:32:04;;;;;;;8.20;8.10;;;;;;;;;;5014210;28;20498;-71
2024/02/19 08:34:31;;;;;;;8.20;8.10;;;;;;;;;;5006594;28;20466;-70
2024/02/19 08:36:58;;;;;;;8.60;8.50;;;;;;;;;;5011974;28;20465;-71
2024/02/19 08:39:25;;;;;;;7.80;7.70;;;;;;;;;;5011914;28;20480;-73
2024/02/19 08:41:52;;;;;;;8.47;8.37;;;;;;;;;;5008408;28;20549;-73
2024/02/19 08:44:20;;;;;;;8.00;7.90;;;;;;;;;;5008818;28;20967;-71
2024/02/19 08:46:48;;;;;;;8.53;8.43;;;;;;;;;;5001121;28;20839;-73
2024/02/19 08:49:15;;;;;;;8.13;8.03;;;;;;;;;;5014280;28;20469;-71
2024/02/19 08:51:42;;;;;;;8.37;8.27;;;;;;;;;;5023686;28;20498;-72
2024/02/19 08:54:10;;;;;;;8.20;8.10;;;;;;;;;;5012105;28;20466;-71
2024/02/19 08:56:37;;;;;;;8.40;8.30;;;;;;;;;;5012684;28;20476;-72
2024/02/19 08:59:05;;;;;;;8.60;8.50;;;;;;;;;;5010961;27;20969;-71
2024/02/19 09:01:32;;;;;;;8.30;8.20;;;;;;;;;;5011926;27;20492;-72
2024/02/19 09:04:00;;;;;;;7.53;7.43;;;;;;;;;;5014420;27;20456;-72
2024/02/19 09:06:28;;;;;;;8.30;8.20;;;;;;;;;;5017726;27;20988;-72
2024/02/19 09:08:55;;;;;;;8.30;8.20;;;;;;;;;;5020337;27;20775;-73
2024/02/19 09:11:22;;;;;;;8.60;8.50;;;;;;;;;;5015964;27;20496;-73
2024/02/19 09:13:50;;;;;;;8.60;8.50;;;;;;;;;;5012683;27;20469;-71
2024/02/19 09:16:17;;;;;;;9.20;9.00;;;;;;;;;;5012541;28;20798;-72
2024/02/19 09:18:44;;;;;;;8.60;8.50;;;;;;;;;;5016147;27;20473;-71
2024/02/19 09:21:13;;;;;;;8.93;8.73;;;;;;;;;;5019400;27;21023;-73
2024/02/19 09:23:40;;;;;;;9.80;9.60;;;;;;;;;;5013390;27;20471;-71
2024/02/19 09:26:13;;;;;;;9.23;9.03;;;;;;;;;;5012314;27;20560;-72
2024/02/19 09:28:40;;;;;;;9.73;9.53;;;;;;;;;;5012393;27;20468;-72
2024/02/19 09:31:07;;;;;;;9.50;9.30;;;;;;;;;;5010481;27;20493;-72
2024/02/19 09:33:35;;;;;;;10.33;10.13;;;;;;;;;;5013201;27;20463;-73
2024/02/19 09:36:03;;;;;;;9.60;9.40;;;;;;;;;;5015951;27;20464;-72
2024/02/19 09:38:31;;;;;;;10.20;10.00;;;;;;;;;;5014231;27;20465;-71
2024/02/19 09:41:04;;;;;;;10.30;10.10;;;;;;;;;;5014769;27;20490;-71
2024/02/19 09:43:31;;;;;;;11.00;10.70;;;;;;;;;;5016393;27;20911;-72
2024/02/19 09:45:58;;;;;;;10.00;9.80;;;;;;;;;;5011067;27;20492;-72
2024/02/19 09:48:26;;;;;;;10.40;10.20;;;;;;;;;;5010385;28;20898;-73
2024/02/19 09:50:55;;;;;;;10.67;10.37;;;;;;;;;;5015920;27;20878;-71
2024/02/19 09:53:27;;;;;;;11.00;10.70;;;;;;;;;;5015231;28;21034;-71
2024/02/19 09:55:56;;;;;;;10.40;10.20;;;;;;;;;;5015773;27;20974;-72
2024/02/19 09:58:23;;;;;;;10.50;10.30;;;;;;;;;;5010638;27;20471;-70
2024/02/19 10:00:50;;;;;;;10.77;10.47;;;;;;;;;;5017015;28;20475;-72
2024/02/19 10:03:19;;;;;;;11.80;11.50;;;;;;;;;;5015641;27;20472;-73
2024/02/19 10:05:46;;;;;;;11.47;11.17;;;;;;;;;;5010275;27;20461;-72
2024/02/19 10:08:14;;;;;;;11.57;11.27;;;;;;;;;;5012284;28;20478;-71
2024/02/19 10:10:42;;;;;;;10.90;10.60;;;;;;;;;;5020662;27;20464;-73
2024/02/19 10:13:12;;;;;;;10.93;10.63;;;;;;;;;;5014326;27;20520;-72
2024/02/19 10:15:39;;;;;;;11.00;10.70;;;;;;;;;;5013827;28;20473;-72
2024/02/19 10:18:13;;;;;;;10.57;10.33;;;;;;;;;;5007740;28;20912;-72
2024/02/19 10:20:43;;;;;;;10.50;10.30;;;;;;;;;;5009293;27;20599;-72
2024/02/19 10:23:10;;;;;;;10.10;9.90;;;;;;;;;;5013938;28;20454;-73
2024/02/19 10:25:37;;;;;;;10.87;10.57;;;;;;;;;;5016199;27;20915;-73
2024/02/19 10:28:04;;;;;;;10.30;10.10;;;;;;;;;;5015789;27;20467;-70
2024/02/19 10:30:33;;;;;;;10.20;10.00;;;;;;;;;;5014108;27;20466;-71
2024/02/19 10:33:00;;;;;;;10.07;9.87;;;;;;;;;;5011778;28;20595;-71
2024/02/19 10:35:28;;;;;;;9.80;9.60;;;;;;;;;;5013143;27;20460;-72
2024/02/19 10:37:58;;;;;;;10.27;10.07;;;;;;;;;;5005100;28;20466;-71
2024/02/19 10:40:25;;;;;;;10.00;9.80;;;;;;;;;;5013941;27;20487;-72
2024/02/19 10:42:52;;;;;;;10.23;10.03;;;;;;;;;;5014643;27;20476;-71
2024/02/19 10:45:21;;;;;;;10.70;10.40;;;;;;;;;;5013246;27;20481;-71
2024/02/19 10:47:49;;;;;;;10.73;10.47;;;;;;;;;;5015194;27;20463;-72
2024/02/19 10:50:18;;;;;;;10.50;10.30;;;;;;;;;;5013541;28;20494;-72
2024/02/19 10:52:45;;;;;;;10.97;10.67;;;;;;;;;;5006775;27;20533;-72
2024/02/19 10:55:13;;;;;;;10.97;10.67;;;;;;;;;;5020148;27;20986;-72
2024/02/19 10:57:46;;;;;;;11.10;10.80;;;;;;;;;;5013815;27;20832;-70
2024/02/19 11:00:14;;;;;;;11.00;10.70;;;;;;;;;;5011087;28;20476;-71
2024/02/19 11:02:41;;;;;;;11.33;11.03;;;;;;;;;;5012596;27;20472;-72
2024/02/19 11:05:11;;;;;;;11.47;11.17;;;;;;;;;;5005701;27;20518;-71
2024/02/19 11:07:38;;;;;;;11.30;11.00;;;;;;;;;;5009922;27;20466;-72
2024/02/19 11:10:06;;;;;;;11.10;10.80;;;;;;;;;;5015196;27;20835;-71
2024/02/19 11:12:33;;;;;;;11.10;10.80;;;;;;;;;;5011749;27;20509;-72
2024/02/19 11:15:01;;;;;;;11.40;11.10;;;;;;;;;;5014967;27;22290;-73
2024/02/19 11:17:28;;;;;;;11.10;10.80;;;;;;;;;;5013428;27;20469;-72
2024/02/19 11:19:55;;;;;;;11.17;10.87;;;;;;;;;;5008843;27;20464;-73
2024/02/19 11:22:30;;;;;;;10.20;10.00;;;;;;;;;;5013140;27;20464;-72
2024/02/19 11:24:58;;;;;;;10.47;10.27;;;;;;;;;;5011371;27;21033;-72
2024/02/19 11:27:25;;;;;;;10.70;10.40;;;;;;;;;;5014189;27;20474;-72
2024/02/19 11:29:57;;;;;;;10.30;10.10;;;;;;;;;;5014847;28;20476;-71
2024/02/19 11:32:24;;;;;;;16.20;15.50;;;;;;;;;;5010843;27;20663;-70
2024/02/19 11:34:52;;;;;;;16.80;16.00;;;;;;;;;;5023014;27;20468;-70
2024/02/19 11:37:19;;;;;;;17.37;16.47;;;;;;;;;;5014044;27;20474;-71
2024/02/19 11:39:47;;;;;;;17.80;16.80;;;;;;;;;;5010094;27;20477;-71
2024/02/19 11:42:15;;;;;;;18.27;17.33;;;;;;;;;;5014035;28;21085;-72
2024/02/19 11:44:43;;;;;;;17.53;16.63;;;;;;;;;;5020668;28;20487;-72
2024/02/19 11:47:11;;;;;;;17.87;17.00;;;;;;;;;;5016028;27;20466;-72
2024/02/19 11:49:39;;;;;;;17.13;16.33;;;;;;;;;;5010211;27;20545;-72
2024/02/19 11:52:09;;;;;;;16.90;16.10;;;;;;;;;;5019283;28;20493;-73
2024/02/19 11:54:37;;;;;;;16.40;15.70;;;;;;;;;;5016188;27;20472;-72
2024/02/19 11:57:07;;;;;;;16.60;15.90;;;;;;;;;;5043869;27;20479;-73
2024/02/19 11:59:34;;;;;;;16.20;15.50;;;;;;;;;;5015680;27;20812;-73
2024/02/19 12:02:04;;;;;;;15.90;15.20;;;;;;;;;;5019594;28;20471;-74
2024/02/19 12:04:35;;;;;;;15.93;15.23;;;;;;;;;;5022709;28;20560;-74
2024/02/19 12:07:03;;;;;;;15.63;15.03;;;;;;;;;;5020653;27;20548;-72
2024/02/19 12:09:30;;;;;;;15.70;15.00;;;;;;;;;;5040898;27;20488;-72
2024/02/19 12:11:58;;;;;;;15.17;14.57;;;;;;;;;;5016186;28;20489;-73
2024/02/19 12:14:26;;;;;;;14.87;14.27;;;;;;;;;;5019559;27;21089;-73
2024/02/19 12:16:55;;;;;;;14.87;14.27;;;;;;;;;;5018205;28;21170;-73
2024/02/19 12:19:22;;;;;;;14.57;13.97;;;;;;;;;;5018194;27;21046;-71
2024/02/19 12:21:49;;;;;;;14.87;14.27;;;;;;;;;;5019381;28;20475;-73
2024/02/19 12:24:17;;;;;;;14.30;13.70;;;;;;;;;;5012846;28;20484;-73
2024/02/19 12:26:45;;;;;;;14.10;13.60;;;;;;;;;;5019551;28;20783;-72
2024/02/19 12:29:13;;;;;;;13.13;12.63;;;;;;;;;;5020908;28;20930;-72
2024/02/19 12:31:41;;;;;;;13.57;13.07;;;;;;;;;;5011523;28;20471;-73
2024/02/19 12:34:09;;;;;;;13.13;12.63;;;;;;;;;;5014011;28;20492;-72
2024/02/19 12:36:37;;;;;;;13.70;13.20;;;;;;;;;;5006631;28;20486;-71
2024/02/19 12:39:09;;;;;;;13.60;13.10;;;;;;;;;;5010922;28;20487;-72
2024/02/19 12:41:36;;;;;;;13.10;12.70;;;;;;;;;;5013870;28;20479;-72
2024/02/19 12:44:03;;;;;;;12.93;12.53;;;;;;;;;;5020558;28;20452;-73
2024/02/19 12:46:30;;;;;;;13.30;12.80;;;;;;;;;;5015194;28;20495;-71
2024/02/19 12:49:00;;;;;;;13.00;12.60;;;;;;;;;;5014899;28;20949;-72
2024/02/19 12:51:33;;;;;;;13.17;12.77;;;;;;;;;;5021392;28;20957;-72
2024/02/19 12:54:00;;;;;;;13.30;12.80;;;;;;;;;;5012717;28;20455;-72
2024/02/19 12:56:27;;;;;;;12.73;12.33;;;;;;;;;;5017654;28;20821;-73
2024/02/19 12:58:54;;;;;;;12.40;12.00;;;;;;;;;;5007662;28;20981;-73
2024/02/19 13:01:21;;;;;;;12.07;11.67;;;;;;;;;;5018224;28;20471;-71
2024/02/19 13:03:50;;;;;;;11.67;11.37;;;;;;;;;;5012445;28;20481;-71
2024/02/19 13:06:19;;;;;;;12.03;11.63;;;;;;;;;;5021388;28;20470;-73
2024/02/19 13:08:46;;;;;;;12.87;12.47;;;;;;;;;;5009548;28;20471;-72
2024/02/19 13:11:13;;;;;;;12.87;12.47;;;;;;;;;;5036506;28;20462;-71
2024/02/19 13:13:41;;;;;;;12.97;12.57;;;;;;;;;;5030746;28;20501;-72
2024/02/19 13:16:08;;;;;;;12.67;12.27;;;;;;;;;;5037406;28;20473;-73
2024/02/19 13:18:35;;;;;;;12.03;11.63;;;;;;;;;;5032721;28;20809;-71
2024/02/19 13:21:03;;;;;;;12.40;12.00;;;;;;;;;;5022449;28;20595;-71
2024/02/19 13:23:31;;;;;;;12.30;11.90;;;;;;;;;;5050789;28;20468;-73
2024/02/19 13:26:02;;;;;;;12.00;11.60;;;;;;;;;;5034061;28;20464;-73
2024/02/19 13:28:29;;;;;;;12.57;12.17;;;;;;;;;;5037095;28;20473;-73
2024/02/19 13:30:56;;;;;;;12.00;11.60;;;;;;;;;;5027495;28;20481;-71
2024/02/19 13:33:24;;;;;;;11.50;11.20;;;;;;;;;;5043221;28;20498;-73
2024/02/19 13:35:52;;;;;;;11.13;10.83;;;;;;;;;;5028100;27;20465;-72
2024/02/19 13:38:21;;;;;;;11.60;11.30;;;;;;;;;;5033700;28;20472;-72
2024/02/19 13:40:50;;;;;;;10.90;10.60;;;;;;;;;;5009376;28;20524;-72
2024/02/19 13:43:17;;;;;;;10.17;9.97;;;;;;;;;;5020837;28;20496;-71
2024/02/19 13:45:56;;;;;;;10.77;10.47;;;;;;;;;;5028394;27;20853;-71
2024/02/19 13:48:24;;;;;;;9.80;9.60;;;;;;;;;;5035877;27;20479;-71
2024/02/19 13:50:51;;;;;;;9.60;9.40;;;;;;;;;;5037189;27;21013;-73
2024/02/19 13:53:18;;;;;;;9.40;9.20;;;;;;;;;;5024427;27;20506;-72
2024/02/19 13:55:45;;;;;;;9.93;9.73;;;;;;;;;;5055445;27;21222;-72
2024/02/19 13:58:15;;;;;;;9.77;9.57;;;;;;;;;;5070629;27;20535;-72
2024/02/19 14:00:42;;;;;;;8.87;8.67;;;;;;;;;;5016986;27;21098;-72
2024/02/19 14:03:09;;;;;;;8.97;8.77;;;;;;;;;;5029245;27;20489;-71
2024/02/19 14:05:37;;;;;;;9.00;8.80;;;;;;;;;;5018817;27;20472;-72
2024/02/19 14:08:04;;;;;;;9.07;8.87;;;;;;;;;;5014383;27;20474;-72
2024/02/19 14:10:31;;;;;;;8.77;8.67;;;;;;;;;;5026407;27;20472;-71
2024/02/19 14:12:59;;;;;;;9.20;9.00;;;;;;;;;;5009044;27;20490;-71
2024/02/19 14:15:27;;;;;;;9.47;9.27;;;;;;;;;;5023238;28;20472;-72
2024/02/19 14:17:54;;;;;;;9.20;9.00;;;;;;;;;;5015003;27;21915;-71
2024/02/19 14:20:22;;;;;;;8.97;8.77;;;;;;;;;;5020142;27;20511;-73
2024/02/19 14:22:50;;;;;;;9.40;9.20;;;;;;;;;;5017497;28;20489;-72
2024/02/19 14:25:17;;;;;;;8.87;8.70;;;;;;;;;;5012104;27;20465;-71
2024/02/19 14:27:45;;;;;;;8.57;8.47;;;;;;;;;;5020449;28;20668;-71
2024/02/19 14:30:13;;;;;;;9.23;9.03;;;;;;;;;;5017601;28;20490;-72
2024/02/19 14:32:42;;;;;;;8.77;8.57;;;;;;;;;;5010296;27;21015;-70
2024/02/19 14:35:12;;;;;;;10.50;10.30;;;;;;;;;;5013712;28;20502;-70
2024/02/19 14:37:40;;;;;;;11.00;10.70;;;;;;;;;;5016449;28;20541;-71
2024/02/19 14:40:09;;;;;;;10.97;10.67;;;;;;;;;;5022966;28;20804;-70